createdAt,value
2018-05-24T00:01:07.845Z,0
2018-05-24T00:02:16.503Z,0
2018-05-24T00:03:25.145Z,0
2018-05-24T00:04:33.793Z,0
2018-05-24T00:05:42.708Z,0
2018-05-24T00:06:51.350Z,0
2018-05-24T00:08:00.377Z,0
2018-05-24T00:09:09.026Z,0
2018-05-24T00:10:17.680Z,0
2018-05-24T00:11:26.321Z,0
2018-05-24T00:12:34.972Z,0
2018-05-24T00:13:43.612Z,0
2018-05-24T00:14:52.267Z,0
2018-05-24T00:16:00.904Z,0
2018-05-24T00:17:09.552Z,0
2018-05-24T00:18:18.200Z,0
2018-05-24T00:19:26.852Z,0
2018-05-24T00:20:35.489Z,0
2018-05-24T00:21:44.136Z,0
2018-05-24T00:22:52.781Z,0
2018-05-24T00:24:01.438Z,0
2018-05-24T00:25:10.085Z,0
2018-05-24T00:26:18.730Z,0
2018-05-24T00:27:27.375Z,0
2018-05-24T00:28:36.295Z,0
2018-05-24T00:29:44.946Z,0
2018-05-24T00:30:53.598Z,0
2018-05-24T00:32:02.243Z,0
2018-05-24T00:33:11.148Z,0
2018-05-24T00:34:19.799Z,0
2018-05-24T00:35:28.443Z,0
2018-05-24T00:36:37.088Z,0
2018-05-24T00:37:45.732Z,0
2018-05-24T00:38:54.382Z,0
2018-05-24T00:40:03.027Z,0
2018-05-24T00:41:11.683Z,0
2018-05-24T00:42:20.324Z,0
2018-05-24T00:43:28.974Z,0
2018-05-24T00:44:37.624Z,0
2018-05-24T00:45:46.267Z,0
2018-05-24T00:46:54.916Z,0
2018-05-24T00:48:03.557Z,0
2018-05-24T00:49:12.470Z,0
2018-05-24T00:50:21.116Z,0
2018-05-24T00:51:29.767Z,0
2018-05-24T00:52:38.403Z,0
2018-05-24T00:53:47.048Z,0
2018-05-24T00:54:55.700Z,0
2018-05-24T00:56:04.354Z,0
2018-05-24T00:57:12.996Z,0
2018-05-24T00:58:21.648Z,0
2018-05-24T00:59:30.289Z,0
2018-05-24T01:00:38.940Z,0
2018-05-24T01:01:47.583Z,0
2018-05-24T01:02:56.229Z,0
2018-05-24T01:04:04.873Z,0
2018-05-24T01:05:13.783Z,0
2018-05-24T01:06:22.433Z,0
2018-05-24T01:07:31.077Z,0
2018-05-24T01:08:39.724Z,0
2018-05-24T01:09:48.365Z,0
2018-05-24T01:10:57.016Z,0
2018-05-24T01:12:05.659Z,0
2018-05-24T01:13:14.571Z,0
2018-05-24T01:14:23.211Z,0
2018-05-24T01:15:31.865Z,0
2018-05-24T01:16:40.503Z,0
2018-05-24T01:17:49.153Z,0
2018-05-24T01:18:57.795Z,0
2018-05-24T01:20:06.441Z,0
2018-05-24T01:21:15.088Z,0
2018-05-24T01:22:23.734Z,0
2018-05-24T01:23:32.378Z,0
2018-05-24T01:24:41.030Z,0
2018-05-24T01:25:49.680Z,0
2018-05-24T01:26:58.585Z,0
2018-05-24T01:28:07.228Z,0
2018-05-24T01:29:15.882Z,0
2018-05-24T01:30:24.795Z,0
2018-05-24T01:31:33.784Z,0
2018-05-24T01:32:42.345Z,0
2018-05-24T01:33:50.997Z,0
2018-05-24T01:34:59.638Z,0
2018-05-24T01:36:08.287Z,0
2018-05-24T01:37:16.928Z,0
2018-05-24T01:38:25.841Z,0
2018-05-24T01:39:34.484Z,0
2018-05-24T01:40:43.394Z,0
2018-05-24T01:41:52.042Z,0
2018-05-24T01:43:00.683Z,0
2018-05-24T01:44:09.327Z,0
2018-05-24T01:45:17.980Z,0
2018-05-24T01:46:26.627Z,0
2018-05-24T01:47:35.270Z,0
2018-05-24T01:48:43.914Z,0
2018-05-24T01:49:52.564Z,0
2018-05-24T01:51:01.480Z,0
2018-05-24T01:52:10.126Z,0
2018-05-24T01:53:18.760Z,0
2018-05-24T01:54:27.403Z,0
2018-05-24T01:55:36.054Z,0
2018-05-24T01:56:44.695Z,0
2018-05-24T01:57:53.602Z,0
2018-05-24T01:59:02.246Z,0
2018-05-24T02:00:10.896Z,0
2018-05-24T02:01:19.545Z,0
2018-05-24T02:02:28.192Z,0
2018-05-24T02:03:36.838Z,0
2018-05-24T02:04:45.479Z,0
2018-05-24T02:05:54.396Z,0
2018-05-24T02:07:03.048Z,0
2018-05-24T02:08:11.694Z,0
2018-05-24T02:09:20.605Z,0
2018-05-24T02:10:29.250Z,0
2018-05-24T02:11:37.892Z,0
2018-05-24T02:12:46.542Z,0
2018-05-24T02:13:55.179Z,0
2018-05-24T02:15:04.098Z,0
2018-05-24T02:16:13.016Z,0
2018-05-24T02:17:21.664Z,0
2018-05-24T02:18:30.315Z,0
2018-05-24T02:19:38.951Z,0
2018-05-24T02:20:47.599Z,0
2018-05-24T02:21:56.773Z,0
2018-05-24T02:23:05.429Z,0
2018-05-24T02:24:14.067Z,0
2018-05-24T02:25:22.717Z,0
2018-05-24T02:26:31.359Z,0
2018-05-24T02:27:40.013Z,0
2018-05-24T02:28:48.914Z,0
2018-05-24T02:29:58.091Z,0
2018-05-24T02:31:07.000Z,0
2018-05-24T02:32:15.657Z,0
2018-05-24T02:33:24.302Z,0
2018-05-24T02:34:33.474Z,0
2018-05-24T02:35:42.428Z,0
2018-05-24T02:36:51.031Z,0
2018-05-24T02:37:59.697Z,0
2018-05-24T02:39:08.611Z,0
2018-05-24T02:40:17.263Z,0
2018-05-24T02:41:25.901Z,0
2018-05-24T02:42:34.558Z,0
2018-05-24T02:43:43.203Z,0
2018-05-24T02:44:52.118Z,4
2018-05-24T02:46:01.026Z,0
2018-05-24T02:47:09.679Z,0
2018-05-24T02:48:18.328Z,4
2018-05-24T02:49:26.976Z,4
2018-05-24T02:50:35.881Z,0
2018-05-24T02:51:44.534Z,4
2018-05-24T02:52:53.188Z,4
2018-05-24T02:54:01.836Z,4
2018-05-24T02:55:11.031Z,4
2018-05-24T02:56:19.680Z,4
2018-05-24T02:57:28.324Z,4
2018-05-24T02:58:37.491Z,4
2018-05-24T02:59:46.685Z,8
2018-05-24T03:00:55.320Z,8
2018-05-24T03:02:04.180Z,12
2018-05-24T03:03:13.172Z,16
2018-05-24T03:04:22.396Z,16
2018-05-24T03:05:31.284Z,16
2018-05-24T03:06:40.406Z,20
2018-05-24T03:07:49.201Z,24
2018-05-24T03:08:57.866Z,28
2018-05-24T03:10:06.512Z,32
2018-05-24T03:11:15.428Z,36
2018-05-24T03:12:24.074Z,40
2018-05-24T03:13:32.986Z,40
2018-05-24T03:14:41.909Z,44
2018-05-24T03:15:50.555Z,48
2018-05-24T03:16:59.208Z,56
2018-05-24T03:18:07.841Z,60
2018-05-24T03:19:16.493Z,68
2018-05-24T03:20:25.140Z,76
2018-05-24T03:21:33.787Z,80
2018-05-24T03:22:42.429Z,84
2018-05-24T03:23:51.357Z,92
2018-05-24T03:24:59.996Z,96
2018-05-24T03:26:08.645Z,108
2018-05-24T03:27:17.286Z,116
2018-05-24T03:28:25.935Z,120
2018-05-24T03:29:34.577Z,132
2018-05-24T03:30:43.233Z,132
2018-05-24T03:31:51.890Z,140
2018-05-24T03:33:00.525Z,144
2018-05-24T03:34:09.174Z,148
2018-05-24T03:35:17.969Z,156
2018-05-24T03:36:26.468Z,160
2018-05-24T03:37:35.649Z,168
2018-05-24T03:38:44.291Z,176
2018-05-24T03:39:52.938Z,180
2018-05-24T03:41:01.590Z,188
2018-05-24T03:42:10.761Z,196
2018-05-24T03:43:19.678Z,208
2018-05-24T03:44:28.322Z,220
2018-05-24T03:45:36.972Z,240
2018-05-24T03:46:45.612Z,248
2018-05-24T03:47:54.799Z,260
2018-05-24T03:49:03.706Z,276
2018-05-24T03:50:12.349Z,292
2018-05-24T03:51:20.996Z,304
2018-05-24T03:52:29.913Z,328
2018-05-24T03:53:38.822Z,348
2018-05-24T03:54:47.463Z,352
2018-05-24T03:55:56.113Z,348
2018-05-24T03:57:04.759Z,336
2018-05-24T03:58:13.408Z,324
2018-05-24T03:59:22.048Z,328
2018-05-24T04:00:30.700Z,324
2018-05-24T04:01:39.341Z,320
2018-05-24T04:02:47.990Z,320
2018-05-24T04:03:56.630Z,332
2018-05-24T04:05:05.277Z,352
2018-05-24T04:06:13.924Z,364
2018-05-24T04:07:22.571Z,380
2018-05-24T04:08:31.223Z,408
2018-05-24T04:09:39.864Z,436
2018-05-24T04:10:48.509Z,476
2018-05-24T04:11:57.432Z,512
2018-05-24T04:13:06.347Z,548
2018-05-24T04:14:14.984Z,596
2018-05-24T04:15:23.629Z,628
2018-05-24T04:16:32.280Z,648
2018-05-24T04:17:40.936Z,676
2018-05-24T04:18:49.568Z,756
2018-05-24T04:19:58.217Z,880
2018-05-24T04:21:06.860Z,996
2018-05-24T04:22:15.516Z,1036
2018-05-24T04:23:24.572Z,1040
2018-05-24T04:24:33.213Z,1024
2018-05-24T04:25:41.864Z,1008
2018-05-24T04:26:50.502Z,984
2018-05-24T04:27:59.158Z,924
2018-05-24T04:29:08.071Z,860
2018-05-24T04:30:16.724Z,836
2018-05-24T04:31:25.358Z,824
2018-05-24T04:32:34.284Z,836
2018-05-24T04:33:42.923Z,844
2018-05-24T04:34:51.579Z,840
2018-05-24T04:36:00.216Z,824
2018-05-24T04:37:08.866Z,812
2018-05-24T04:38:17.509Z,824
2018-05-24T04:39:26.156Z,860
2018-05-24T04:40:34.793Z,928
2018-05-24T04:41:43.443Z,1032
2018-05-24T04:42:52.096Z,1164
2018-05-24T04:44:00.743Z,1284
2018-05-24T04:45:09.390Z,1340
2018-05-24T04:46:18.029Z,1396
2018-05-24T04:47:26.682Z,1468
2018-05-24T04:48:35.584Z,1504
2018-05-24T04:49:44.239Z,1500
2018-05-24T04:50:52.877Z,1468
2018-05-24T04:52:01.527Z,1460
2018-05-24T04:53:10.171Z,1508
2018-05-24T04:54:18.826Z,1628
2018-05-24T04:55:27.462Z,1776
2018-05-24T04:56:36.382Z,1868
2018-05-24T04:57:45.026Z,1916
2018-05-24T04:58:53.681Z,1996
2018-05-24T05:00:02.324Z,2052
2018-05-24T05:01:10.966Z,1976
2018-05-24T05:02:19.608Z,1848
2018-05-24T05:03:28.781Z,1792
2018-05-24T05:04:37.709Z,1824
2018-05-24T05:05:46.347Z,1836
2018-05-24T05:06:55.000Z,1912
2018-05-24T05:08:03.637Z,2012
2018-05-24T05:09:12.557Z,2104
2018-05-24T05:10:21.201Z,2172
2018-05-24T05:11:30.116Z,2160
2018-05-24T05:12:38.749Z,2108
2018-05-24T05:13:47.408Z,2060
2018-05-24T05:14:56.049Z,2028
2018-05-24T05:16:04.691Z,1984
2018-05-24T05:17:13.611Z,1972
2018-05-24T05:18:22.522Z,1980
2018-05-24T05:19:31.823Z,2032
2018-05-24T05:20:40.461Z,2116
2018-05-24T05:21:49.106Z,2220
2018-05-24T05:22:57.768Z,2316
2018-05-24T05:24:06.671Z,2388
2018-05-24T05:25:15.340Z,2464
2018-05-24T05:26:23.961Z,2504
2018-05-24T05:27:32.618Z,2520
2018-05-24T05:28:41.262Z,2508
2018-05-24T05:29:49.913Z,2460
2018-05-24T05:30:58.550Z,2416
2018-05-24T05:32:07.206Z,2400
2018-05-24T05:33:15.849Z,2408
2018-05-24T05:34:24.769Z,2476
2018-05-24T05:35:33.408Z,2592
2018-05-24T05:36:42.052Z,2672
2018-05-24T05:37:50.970Z,2756
2018-05-24T05:38:59.895Z,2792
2018-05-24T05:40:08.544Z,2872
2018-05-24T05:41:17.183Z,2996
2018-05-24T05:42:25.835Z,3124
2018-05-24T05:43:34.482Z,3332
2018-05-24T05:44:43.211Z,3436
2018-05-24T05:45:52.045Z,3548
2018-05-24T05:47:00.696Z,3708
2018-05-24T05:48:09.341Z,3948
2018-05-24T05:49:17.995Z,4176
2018-05-24T05:50:26.633Z,4408
2018-05-24T05:51:35.289Z,4532
2018-05-24T05:52:44.205Z,4748
2018-05-24T05:53:52.861Z,4984
2018-05-24T05:55:01.507Z,5236
2018-05-24T05:56:10.411Z,5448
2018-05-24T05:57:19.054Z,5656
2018-05-24T05:58:27.699Z,5644
2018-05-24T05:59:36.354Z,5456
2018-05-24T06:00:44.997Z,5292
2018-05-24T06:01:53.679Z,5188
2018-05-24T06:03:02.301Z,5204
2018-05-24T06:04:10.968Z,5136
2018-05-24T06:05:19.615Z,5040
2018-05-24T06:06:28.264Z,5020
2018-05-24T06:07:36.900Z,4984
2018-05-24T06:08:45.557Z,4868
2018-05-24T06:09:54.201Z,4816
2018-05-24T06:11:02.851Z,4760
2018-05-24T06:12:11.489Z,4884
2018-05-24T06:13:20.145Z,4744
2018-05-24T06:14:29.068Z,4484
2018-05-24T06:15:37.709Z,4204
2018-05-24T06:16:46.361Z,3908
2018-05-24T06:17:54.999Z,3700
2018-05-24T06:19:03.648Z,3824
2018-05-24T06:20:12.299Z,4048
2018-05-24T06:21:20.951Z,4388
2018-05-24T06:22:29.596Z,4688
2018-05-24T06:23:38.325Z,4848
2018-05-24T06:24:46.891Z,4864
2018-05-24T06:25:55.548Z,4784
2018-05-24T06:27:04.188Z,4652
2018-05-24T06:28:12.838Z,4556
2018-05-24T06:29:21.485Z,4568
2018-05-24T06:30:30.420Z,4556
2018-05-24T06:31:39.068Z,4444
2018-05-24T06:32:47.724Z,4252
2018-05-24T06:33:56.364Z,3992
2018-05-24T06:35:05.011Z,3716
2018-05-24T06:36:13.762Z,3504
2018-05-24T06:37:22.409Z,3420
2018-05-24T06:38:31.056Z,3448
2018-05-24T06:39:39.700Z,3584
2018-05-24T06:40:48.350Z,3832
2018-05-24T06:41:56.998Z,4120
2018-05-24T06:43:05.646Z,4424
2018-05-24T06:44:14.290Z,4692
2018-05-24T06:45:22.942Z,4956
2018-05-24T06:46:31.651Z,5172
2018-05-24T06:47:40.511Z,5268
2018-05-24T06:48:49.158Z,5316
2018-05-24T06:49:57.808Z,5264
2018-05-24T06:51:06.459Z,5244
2018-05-24T06:52:15.370Z,5224
2018-05-24T06:53:24.023Z,5364
2018-05-24T06:54:32.931Z,5536
2018-05-24T06:55:41.580Z,5708
2018-05-24T06:56:50.230Z,5748
2018-05-24T06:57:58.881Z,5856
2018-05-24T06:59:07.524Z,6228
2018-05-24T07:00:16.171Z,6468
2018-05-24T07:01:24.820Z,6824
2018-05-24T07:02:33.477Z,6972
2018-05-24T07:03:42.383Z,7176
2018-05-24T07:04:51.034Z,7424
2018-05-24T07:06:00.080Z,7652
2018-05-24T07:07:08.705Z,7764
2018-05-24T07:08:17.351Z,7844
2018-05-24T07:09:26.003Z,7784
2018-05-24T07:10:34.647Z,7712
2018-05-24T07:11:43.293Z,7392
2018-05-24T07:12:51.947Z,7116
2018-05-24T07:14:00.598Z,6696
2018-05-24T07:15:09.514Z,6368
2018-05-24T07:16:18.423Z,6136
2018-05-24T07:17:27.078Z,5980
2018-05-24T07:18:35.735Z,5892
2018-05-24T07:19:44.380Z,5824
2018-05-24T07:20:53.028Z,5776
2018-05-24T07:22:01.683Z,5840
2018-05-24T07:23:10.335Z,5840
2018-05-24T07:24:18.979Z,5780
2018-05-24T07:25:27.628Z,5580
2018-05-24T07:26:36.297Z,5708
2018-05-24T07:27:44.926Z,5628
2018-05-24T07:28:53.576Z,5720
2018-05-24T07:30:02.499Z,5780
2018-05-24T07:31:11.410Z,5580
2018-05-24T07:32:20.060Z,5284
2018-05-24T07:33:28.976Z,5120
2018-05-24T07:34:37.630Z,4880
2018-05-24T07:35:46.277Z,4672
2018-05-24T07:36:54.926Z,4476
2018-05-24T07:38:03.577Z,4340
2018-05-24T07:39:12.233Z,4288
2018-05-24T07:40:20.877Z,4264
2018-05-24T07:41:29.606Z,4276
2018-05-24T07:42:38.177Z,4372
2018-05-24T07:43:47.114Z,4508
2018-05-24T07:44:56.033Z,4624
2018-05-24T07:46:04.683Z,4604
2018-05-24T07:47:13.596Z,4576
2018-05-24T07:48:22.243Z,4580
2018-05-24T07:49:30.899Z,4484
2018-05-24T07:50:39.544Z,4496
2018-05-24T07:51:48.195Z,4608
2018-05-24T07:52:56.840Z,4528
2018-05-24T07:54:05.496Z,4520
2018-05-24T07:55:14.143Z,4788
2018-05-24T07:56:23.055Z,5248
2018-05-24T07:57:31.698Z,5564
2018-05-24T07:58:40.354Z,6024
2018-05-24T07:59:49.003Z,6604
2018-05-24T08:00:57.655Z,6652
2018-05-24T08:02:06.574Z,6504
2018-05-24T08:03:15.490Z,6292
2018-05-24T08:04:24.149Z,6108
2018-05-24T08:05:33.067Z,5908
2018-05-24T08:06:41.722Z,5896
2018-05-24T08:07:50.409Z,6400
2018-05-24T08:08:59.017Z,6808
2018-05-24T08:10:07.670Z,7476
2018-05-24T08:11:16.328Z,7820
2018-05-24T08:12:24.968Z,8112
2018-05-24T08:13:33.623Z,8204
2018-05-24T08:14:42.294Z,8216
2018-05-24T08:15:50.931Z,7668
2018-05-24T08:16:59.572Z,7236
2018-05-24T08:18:08.226Z,7028
2018-05-24T08:19:16.934Z,7128
2018-05-24T08:20:25.541Z,7084
2018-05-24T08:21:34.186Z,6412
2018-05-24T08:22:42.838Z,5920
2018-05-24T08:23:51.486Z,6012
2018-05-24T08:25:00.147Z,6584
2018-05-24T08:26:08.796Z,6400
2018-05-24T08:27:17.705Z,6828
2018-05-24T08:28:26.359Z,7380
2018-05-24T08:29:34.997Z,8156
2018-05-24T08:30:43.657Z,8200
2018-05-24T08:31:52.303Z,7764
2018-05-24T08:33:00.957Z,7776
2018-05-24T08:34:09.601Z,7684
2018-05-24T08:35:18.640Z,7940
2018-05-24T08:36:27.289Z,7624
2018-05-24T08:37:35.943Z,7684
2018-05-24T08:38:44.590Z,7200
2018-05-24T08:39:53.242Z,6804
2018-05-24T08:41:01.994Z,6632
2018-05-24T08:42:10.552Z,6592
2018-05-24T08:43:19.205Z,6836
2018-05-24T08:44:28.117Z,7960
2018-05-24T08:45:36.774Z,8228
2018-05-24T08:46:45.422Z,7668
2018-05-24T08:47:54.083Z,7400
2018-05-24T08:49:02.725Z,7280
2018-05-24T08:50:11.382Z,7072
2018-05-24T08:51:20.035Z,6792
2018-05-24T08:52:28.696Z,6360
2018-05-24T08:53:37.343Z,5872
2018-05-24T08:54:45.993Z,5496
2018-05-24T08:55:54.644Z,5108
2018-05-24T08:57:03.844Z,4896
2018-05-24T08:58:12.495Z,4504
2018-05-24T08:59:21.145Z,4392
2018-05-24T09:00:29.797Z,4440
2018-05-24T09:01:38.707Z,4168
2018-05-24T09:02:47.373Z,3876
2018-05-24T09:03:56.022Z,4412
2018-05-24T09:05:04.943Z,4692
2018-05-24T09:06:13.586Z,4452
2018-05-24T09:07:22.257Z,5320
2018-05-24T09:08:30.901Z,5740
2018-05-24T09:09:39.830Z,6312
2018-05-24T09:10:48.483Z,7144
2018-05-24T09:11:57.126Z,6480
2018-05-24T09:13:05.787Z,6376
2018-05-24T09:14:14.446Z,6332
2018-05-24T09:15:23.106Z,6636
2018-05-24T09:16:31.757Z,6640
2018-05-24T09:17:40.407Z,6384
2018-05-24T09:18:49.064Z,6188
2018-05-24T09:19:57.706Z,6184
2018-05-24T09:21:06.365Z,6008
2018-05-24T09:22:15.008Z,5776
2018-05-24T09:23:23.919Z,5736
2018-05-24T09:24:32.830Z,5648
2018-05-24T09:25:41.754Z,5420
2018-05-24T09:26:50.657Z,4924
2018-05-24T09:27:59.311Z,5192
2018-05-24T09:29:07.956Z,6184
2018-05-24T09:30:16.893Z,6228
2018-05-24T09:31:25.810Z,6264
2018-05-24T09:32:34.726Z,6304
2018-05-24T09:33:43.367Z,6020
2018-05-24T09:34:52.024Z,6252
2018-05-24T09:36:00.679Z,5692
2018-05-24T09:37:09.336Z,5856
2018-05-24T09:38:17.990Z,6592
2018-05-24T09:39:26.633Z,6368
2018-05-24T09:40:35.290Z,5964
2018-05-24T09:41:43.938Z,5620
2018-05-24T09:42:52.601Z,5312
2018-05-24T09:44:01.244Z,4952
2018-05-24T09:45:09.901Z,4712
2018-05-24T09:46:18.548Z,4480
2018-05-24T09:47:27.209Z,4544
2018-05-24T09:48:36.115Z,4264
2018-05-24T09:49:44.771Z,3948
2018-05-24T09:50:53.427Z,4132
2018-05-24T09:52:02.347Z,4044
2018-05-24T09:53:11.261Z,4180
2018-05-24T09:54:19.912Z,4272
2018-05-24T09:55:28.962Z,4440
2018-05-24T09:56:37.612Z,4220
2018-05-24T09:57:46.275Z,4148
2018-05-24T09:58:54.923Z,4484
2018-05-24T10:00:03.582Z,5048
2018-05-24T10:01:12.224Z,5064
2018-05-24T10:02:20.883Z,5024
2018-05-24T10:03:29.535Z,4768
2018-05-24T10:04:38.507Z,5120
2018-05-24T10:05:47.100Z,5108
2018-05-24T10:06:55.768Z,4696
2018-05-24T10:08:04.682Z,5104
2018-05-24T10:09:13.334Z,4932
2018-05-24T10:10:21.982Z,5156
2018-05-24T10:11:30.637Z,5136
2018-05-24T10:12:39.289Z,4952
2018-05-24T10:13:47.943Z,5480
2018-05-24T10:14:56.598Z,5568
2018-05-24T10:16:05.318Z,5552
2018-05-24T10:17:14.169Z,4792
2018-05-24T10:18:22.821Z,4808
2018-05-24T10:19:31.478Z,5140
2018-05-24T10:20:40.126Z,4956
2018-05-24T10:21:48.780Z,5172
2018-05-24T10:22:57.433Z,5520
2018-05-24T10:24:06.297Z,5748
2018-05-24T10:25:15.038Z,6152
2018-05-24T10:26:23.876Z,6164
2018-05-24T10:27:32.533Z,6328
2018-05-24T10:28:41.307Z,6352
2018-05-24T10:29:49.956Z,6404
2018-05-24T10:30:58.614Z,6244
2018-05-24T10:32:07.526Z,6228
2018-05-24T10:33:16.172Z,5952
2018-05-24T10:34:24.909Z,5696
2018-05-24T10:35:33.563Z,5416
2018-05-24T10:36:42.811Z,5232
2018-05-24T10:37:51.783Z,4976
2018-05-24T10:39:00.445Z,4672
2018-05-24T10:40:09.147Z,4456
2018-05-24T10:41:17.798Z,4124
2018-05-24T10:42:27.173Z,3644
2018-05-24T10:43:35.840Z,3248
2018-05-24T10:44:44.485Z,3084
2018-05-24T10:45:53.139Z,3200
2018-05-24T10:47:01.787Z,3384
2018-05-24T10:48:10.442Z,3568
2018-05-24T10:49:19.093Z,3704
2018-05-24T10:50:27.748Z,3936
2018-05-24T10:51:36.402Z,4216
2018-05-24T10:52:45.051Z,4608
2018-05-24T10:53:53.967Z,5024
2018-05-24T10:55:02.627Z,5520
2018-05-24T10:56:11.307Z,5988
2018-05-24T10:57:19.955Z,6344
2018-05-24T10:58:28.606Z,6780
2018-05-24T10:59:37.268Z,7136
2018-05-24T11:00:45.915Z,7304
2018-05-24T11:01:54.561Z,7424
2018-05-24T11:03:03.250Z,7568
2018-05-24T11:04:12.138Z,7696
2018-05-24T11:05:20.793Z,7876
2018-05-24T11:06:29.639Z,7736
2018-05-24T11:07:38.382Z,8028
2018-05-24T11:08:47.036Z,8664
2018-05-24T11:09:55.694Z,8184
2018-05-24T11:11:04.336Z,8016
2018-05-24T11:12:12.995Z,6808
2018-05-24T11:13:21.640Z,7464
2018-05-24T11:14:30.569Z,7200
2018-05-24T11:15:39.214Z,6436
2018-05-24T11:16:48.132Z,6780
2018-05-24T11:17:57.047Z,6304
2018-05-24T11:19:05.708Z,6484
2018-05-24T11:20:14.353Z,6572
2018-05-24T11:21:23.009Z,6180
2018-05-24T11:22:31.940Z,4968
2018-05-24T11:23:40.627Z,6304
2018-05-24T11:24:49.278Z,5072
2018-05-24T11:25:57.925Z,4948
2018-05-24T11:27:06.576Z,5216
2018-05-24T11:28:15.228Z,5384
2018-05-24T11:29:23.889Z,6028
2018-05-24T11:30:32.539Z,5980
2018-05-24T11:31:41.827Z,6204
2018-05-24T11:32:50.742Z,6724
2018-05-24T11:33:59.403Z,6896
2018-05-24T11:35:08.056Z,6724
2018-05-24T11:36:16.711Z,6428
2018-05-24T11:37:25.371Z,6084
2018-05-24T11:38:34.014Z,6268
2018-05-24T11:39:42.664Z,6664
2018-05-24T11:40:51.579Z,6720
2018-05-24T11:42:00.231Z,6588
2018-05-24T11:43:08.977Z,6420
2018-05-24T11:44:17.803Z,5888
2018-05-24T11:45:26.459Z,5548
2018-05-24T11:46:35.113Z,5344
2018-05-24T11:47:43.756Z,4968
2018-05-24T11:48:52.681Z,4528
2018-05-24T11:50:01.335Z,4332
2018-05-24T11:51:10.005Z,4236
2018-05-24T11:52:18.654Z,4136
2018-05-24T11:53:27.312Z,3924
2018-05-24T11:54:35.962Z,3692
2018-05-24T11:55:44.627Z,3520
2018-05-24T11:56:53.271Z,3460
2018-05-24T11:58:01.925Z,3536
2018-05-24T11:59:10.577Z,3604
2018-05-24T12:00:19.235Z,3836
2018-05-24T12:01:27.889Z,4036
2018-05-24T12:02:36.537Z,4168
2018-05-24T12:03:45.184Z,4268
2018-05-24T12:04:54.093Z,4436
2018-05-24T12:06:02.756Z,4576
2018-05-24T12:07:11.779Z,4588
2018-05-24T12:08:20.319Z,4556
2018-05-24T12:09:28.965Z,4412
2018-05-24T12:10:37.623Z,4400
2018-05-24T12:11:46.274Z,4544
2018-05-24T12:12:54.926Z,4676
2018-05-24T12:14:03.582Z,4884
2018-05-24T12:15:12.634Z,4952
2018-05-24T12:16:21.506Z,4840
2018-05-24T12:17:30.160Z,4468
2018-05-24T12:18:38.807Z,4096
2018-05-24T12:19:47.461Z,4012
2018-05-24T12:20:56.120Z,4180
2018-05-24T12:22:04.771Z,4612
2018-05-24T12:23:13.427Z,5000
2018-05-24T12:24:22.075Z,5048
2018-05-24T12:25:30.729Z,4732
2018-05-24T12:26:39.386Z,4496
2018-05-24T12:27:48.048Z,4600
2018-05-24T12:28:56.696Z,4776
2018-05-24T12:30:05.354Z,5004
2018-05-24T12:31:14.005Z,5132
2018-05-24T12:32:22.661Z,5168
2018-05-24T12:33:31.307Z,5180
2018-05-24T12:34:39.960Z,5016
2018-05-24T12:35:48.613Z,4860
2018-05-24T12:36:57.268Z,4720
2018-05-24T12:38:06.180Z,4580
2018-05-24T12:39:14.832Z,4468
2018-05-24T12:40:23.744Z,4336
2018-05-24T12:41:32.458Z,4336
2018-05-24T12:42:41.310Z,4412
2018-05-24T12:43:50.366Z,4504
2018-05-24T12:44:59.358Z,4600
2018-05-24T12:46:08.120Z,4620
2018-05-24T12:47:16.781Z,4552
2018-05-24T12:48:25.695Z,4416
2018-05-24T12:49:34.610Z,4348
2018-05-24T12:50:43.260Z,4260
2018-05-24T12:51:51.918Z,4028
2018-05-24T12:53:00.567Z,3560
2018-05-24T12:54:09.221Z,3024
2018-05-24T12:55:17.866Z,2600
2018-05-24T12:56:26.520Z,2320
2018-05-24T12:57:35.244Z,2200
2018-05-24T12:58:43.899Z,2092
2018-05-24T12:59:52.554Z,2096
2018-05-24T13:01:01.731Z,2440
2018-05-24T13:02:10.382Z,3188
2018-05-24T13:03:19.296Z,3788
2018-05-24T13:04:27.945Z,3872
2018-05-24T13:05:36.599Z,3732
2018-05-24T13:06:45.741Z,3620
2018-05-24T13:07:54.656Z,3424
2018-05-24T13:09:03.302Z,3684
2018-05-24T13:10:11.958Z,3856
2018-05-24T13:11:20.707Z,3924
2018-05-24T13:12:29.528Z,3964
2018-05-24T13:13:38.437Z,3940
2018-05-24T13:14:47.092Z,3944
2018-05-24T13:15:55.743Z,3560
2018-05-24T13:17:04.481Z,3636
2018-05-24T13:18:13.490Z,4056
2018-05-24T13:19:22.135Z,4080
2018-05-24T13:20:30.787Z,3988
2018-05-24T13:21:39.714Z,3928
2018-05-24T13:22:48.364Z,3932
2018-05-24T13:23:57.010Z,3996
2018-05-24T13:25:05.663Z,4008
2018-05-24T13:26:14.575Z,4040
2018-05-24T13:27:23.495Z,4008
2018-05-24T13:28:32.142Z,3936
2018-05-24T13:29:40.793Z,3860
2018-05-24T13:30:49.706Z,3892
2018-05-24T13:31:58.621Z,3944
2018-05-24T13:33:07.272Z,4000
2018-05-24T13:34:16.189Z,3904
2018-05-24T13:35:25.105Z,3848
2018-05-24T13:36:33.756Z,3832
2018-05-24T13:37:42.411Z,3812
2018-05-24T13:38:51.063Z,3688
2018-05-24T13:39:59.716Z,3520
2018-05-24T13:41:08.365Z,3532
2018-05-24T13:42:17.290Z,3440
2018-05-24T13:43:26.215Z,3300
2018-05-24T13:44:35.128Z,3160
2018-05-24T13:45:43.773Z,2940
2018-05-24T13:46:52.432Z,2680
2018-05-24T13:48:01.078Z,2320
2018-05-24T13:49:09.731Z,2048
2018-05-24T13:50:18.376Z,2012
2018-05-24T13:51:27.033Z,2056
2018-05-24T13:52:35.703Z,2152
2018-05-24T13:53:44.335Z,2232
2018-05-24T13:54:52.984Z,2284
2018-05-24T13:56:01.897Z,2232
2018-05-24T13:57:10.816Z,2444
2018-05-24T13:58:19.464Z,2452
2018-05-24T13:59:28.121Z,2452
2018-05-24T14:00:36.767Z,2460
2018-05-24T14:01:45.773Z,2456
2018-05-24T14:02:54.607Z,2488
2018-05-24T14:04:03.263Z,2636
2018-05-24T14:05:11.906Z,2544
2018-05-24T14:06:20.560Z,2388
2018-05-24T14:07:29.205Z,2316
2018-05-24T14:08:38.131Z,2408
2018-05-24T14:09:46.778Z,2512
2018-05-24T14:10:55.425Z,2912
2018-05-24T14:12:04.073Z,3312
2018-05-24T14:13:12.725Z,3628
2018-05-24T14:14:21.650Z,3796
2018-05-24T14:15:30.298Z,3908
2018-05-24T14:16:38.960Z,4024
2018-05-24T14:17:47.865Z,4080
2018-05-24T14:18:56.524Z,3948
2018-05-24T14:20:05.169Z,3724
2018-05-24T14:21:13.828Z,3484
2018-05-24T14:22:22.472Z,3280
2018-05-24T14:23:31.131Z,3096
2018-05-24T14:24:40.317Z,3056
2018-05-24T14:25:48.972Z,3076
2018-05-24T14:26:57.612Z,3056
2018-05-24T14:28:06.265Z,3088
2018-05-24T14:29:15.191Z,3080
2018-05-24T14:30:24.105Z,2896
2018-05-24T14:31:32.769Z,2808
2018-05-24T14:32:41.398Z,2760
2018-05-24T14:33:50.054Z,2716
2018-05-24T14:34:58.699Z,2644
2018-05-24T14:36:07.623Z,2456
2018-05-24T14:37:16.265Z,2296
2018-05-24T14:38:24.919Z,2240
2018-05-24T14:39:33.565Z,2204
2018-05-24T14:40:42.226Z,2192
2018-05-24T14:41:50.866Z,2172
2018-05-24T14:42:59.518Z,2148
2018-05-24T14:44:08.165Z,2088
2018-05-24T14:45:16.824Z,2048
2018-05-24T14:46:25.472Z,2080
2018-05-24T14:47:34.429Z,2160
2018-05-24T14:48:43.075Z,2204
2018-05-24T14:49:51.722Z,2104
2018-05-24T14:51:00.380Z,1992
2018-05-24T14:52:09.025Z,1900
2018-05-24T14:53:17.680Z,1832
2018-05-24T14:54:26.590Z,1780
2018-05-24T14:55:35.244Z,1828
2018-05-24T14:56:43.891Z,1976
2018-05-24T14:57:52.546Z,2172
2018-05-24T14:59:01.187Z,2380
2018-05-24T15:00:09.844Z,2588
2018-05-24T15:01:18.492Z,2788
2018-05-24T15:02:27.145Z,2920
2018-05-24T15:03:35.790Z,2992
2018-05-24T15:04:44.441Z,2964
2018-05-24T15:05:53.355Z,2852
2018-05-24T15:07:02.270Z,2748
2018-05-24T15:08:10.921Z,2768
2018-05-24T15:09:19.574Z,2824
2018-05-24T15:10:28.491Z,2788
2018-05-24T15:11:37.141Z,2732
2018-05-24T15:12:45.797Z,2652
2018-05-24T15:13:54.976Z,2480
2018-05-24T15:15:03.628Z,2384
2018-05-24T15:16:12.277Z,2336
2018-05-24T15:17:20.932Z,2264
2018-05-24T15:18:29.590Z,2248
2018-05-24T15:19:38.226Z,2216
2018-05-24T15:20:46.875Z,2152
2018-05-24T15:21:55.530Z,2084
2018-05-24T15:23:04.445Z,2004
2018-05-24T15:24:13.093Z,1912
2018-05-24T15:25:21.738Z,1892
2018-05-24T15:26:30.386Z,1932
2018-05-24T15:27:39.041Z,2068
2018-05-24T15:28:47.691Z,2224
2018-05-24T15:29:56.349Z,2384
2018-05-24T15:31:05.260Z,2496
2018-05-24T15:32:14.182Z,2584
2018-05-24T15:33:22.883Z,2732
2018-05-24T15:34:31.485Z,2836
2018-05-24T15:35:40.130Z,2932
2018-05-24T15:36:48.782Z,2936